createdAt,value
2023-04-03T00:03:55.282Z,11.59
2023-04-03T00:08:54.447Z,11.53
2023-04-03T00:13:54.962Z,11.35
2023-04-03T00:18:53.370Z,11.49
2023-04-03T00:23:51.542Z,11.54
2023-04-03T00:28:50.928Z,11.47
2023-04-03T00:33:49.297Z,11.48
2023-04-03T00:38:48.142Z,11.45
2023-04-03T00:43:49.619Z,11.64
2023-04-03T00:48:51.968Z,11.48
2023-04-03T00:53:53.403Z,11.36
2023-04-03T00:59:00.920Z,11.14
2023-04-03T01:04:01.474Z,11.04
2023-04-03T01:09:02.474Z,11.14
2023-04-03T01:14:04.656Z,11.09
2023-04-03T01:19:04.581Z,11.04
2023-04-03T01:24:05.827Z,11.25
2023-04-03T01:29:04.685Z,11.29
2023-04-03T01:34:05.683Z,11.23
2023-04-03T01:39:04.908Z,11.20
2023-04-03T01:44:05.122Z,11.21
2023-04-03T01:49:03.789Z,11.08
2023-04-03T01:54:02.396Z,10.94
2023-04-03T01:59:01.200Z,10.53
2023-04-03T02:04:01.034Z,10.51
2023-04-03T02:08:59.781Z,10.88
2023-04-03T02:13:58.617Z,10.48
2023-04-03T02:18:59.589Z,10.78
2023-04-03T02:23:57.994Z,10.71
2023-04-03T02:28:56.259Z,10.63
2023-04-03T02:33:57.469Z,10.64
2023-04-03T02:38:57.894Z,10.52
2023-04-03T02:43:59.216Z,10.38
2023-04-03T02:48:59.507Z,10.31
2023-04-03T02:53:57.704Z,10.49
2023-04-03T02:59:03.324Z,10.37
2023-04-03T03:04:04.413Z,10.29
2023-04-03T03:09:07.900Z,10.09
2023-04-03T03:14:06.531Z,10.05
2023-04-03T03:19:05.864Z,9.98
2023-04-03T03:24:05.010Z,10.25
2023-04-03T03:29:05.522Z,10.04
2023-04-03T03:34:08.837Z,9.75
2023-04-03T03:39:08.452Z,9.14
2023-04-03T03:44:07.436Z,9.72
2023-04-03T03:49:09.941Z,9.53
2023-04-03T03:54:08.936Z,8.28
2023-04-03T03:59:09.210Z,7.63
2023-04-03T04:04:13.468Z,7.31
2023-04-03T04:09:13.086Z,7.48
2023-04-03T04:14:14.672Z,7.11
2023-04-03T04:19:14.873Z,7.00
2023-04-03T04:24:16.890Z,6.56
2023-04-03T04:29:18.528Z,6.72
2023-04-03T04:34:21.509Z,6.83
2023-04-03T04:39:20.794Z,6.95
2023-04-03T04:44:20.262Z,8.04
2023-04-03T04:49:19.273Z,8.24
2023-04-03T04:54:20.997Z,8.66
2023-04-03T04:59:22.255Z,8.80
2023-04-03T05:04:26.233Z,8.62
2023-04-03T05:09:31.183Z,8.37
2023-04-03T05:14:30.506Z,8.06
2023-04-03T05:19:34.496Z,8.11
2023-04-03T05:24:34.873Z,8.21
2023-04-03T05:29:34.633Z,8.68
2023-04-03T05:34:34.731Z,8.41
2023-04-03T05:39:36.014Z,8.55
2023-04-03T05:44:36.630Z,9.16
2023-04-03T05:49:34.962Z,9.18
2023-04-03T05:54:33.751Z,9.35
2023-04-03T05:59:47.901Z,9.71
2023-04-03T06:04:50.443Z,10.23
2023-04-03T06:09:50.800Z,9.96
2023-04-03T06:14:49.679Z,10.26
2023-04-03T06:19:53.593Z,10.51
2023-04-03T06:24:55.146Z,10.51
2023-04-03T06:29:55.984Z,10.76
2023-04-03T06:34:54.706Z,10.88
2023-04-03T06:39:53.322Z,11.10
2023-04-03T06:44:53.181Z,11.53
2023-04-03T06:49:51.489Z,11.70
2023-04-03T06:54:51.746Z,12.26
2023-04-03T06:59:51.398Z,12.36
2023-04-03T07:04:49.609Z,12.63
2023-04-03T07:09:49.087Z,12.73
2023-04-03T07:14:47.197Z,12.96
2023-04-03T07:19:46.012Z,13.09
2023-04-03T07:25:08.728Z,13.68
2023-04-03T07:30:08.299Z,13.69
2023-04-03T07:35:06.635Z,14.03
2023-04-03T07:40:11.428Z,13.84
2023-04-03T07:45:10.411Z,14.34
2023-04-03T07:50:10.195Z,14.27
2023-04-03T07:55:09.537Z,14.08
2023-04-03T08:00:10.124Z,13.53
2023-04-03T08:05:10.326Z,13.28
2023-04-03T08:10:12.150Z,13.57
2023-04-03T08:15:11.025Z,13.47
2023-04-03T08:20:09.522Z,13.44
2023-04-03T08:25:08.215Z,13.72
2023-04-03T08:30:07.718Z,13.65
2023-04-03T08:35:06.526Z,13.81
2023-04-03T08:40:12.493Z,14.29
2023-04-03T08:45:17.261Z,14.22
2023-04-03T08:50:18.918Z,14.15
2023-04-03T08:55:30.104Z,13.99
2023-04-03T09:00:36.287Z,14.36
2023-04-03T09:05:40.498Z,14.62
2023-04-03T09:10:40.146Z,14.63
2023-04-03T09:15:39.460Z,15.43
2023-04-03T09:20:57.655Z,15.24
2023-04-03T09:26:09.354Z,14.39
2023-04-03T09:31:23.264Z,14.77
2023-04-03T09:42:03.420Z,15.24
2023-04-03T09:47:30.805Z,15.08
2023-04-03T09:52:30.082Z,15.21
2023-04-03T09:57:34.136Z,16.55
2023-04-03T10:02:40.623Z,16.11
2023-04-03T10:07:40.213Z,15.93
2023-04-03T10:12:39.484Z,15.93
2023-04-03T10:18:04.465Z,16.07
2023-04-03T10:23:26.379Z,16.97
2023-04-03T10:28:57.134Z,16.58
2023-04-03T10:34:12.568Z,17.12
2023-04-03T10:39:32.003Z,17.19
2023-04-03T10:45:13.625Z,17.00
2023-04-03T10:50:54.655Z,17.42
2023-04-03T10:56:24.495Z,17.25
2023-04-03T11:01:27.269Z,17.31
2023-04-03T11:06:28.350Z,17.21
2023-04-03T11:11:32.083Z,17.41
2023-04-03T11:16:43.541Z,17.51
2023-04-03T11:21:54.277Z,17.89
2023-04-03T11:26:53.457Z,17.23
2023-04-03T11:32:30.959Z,17.30
2023-04-03T11:37:42.494Z,17.15
2023-04-03T11:42:46.901Z,17.01
2023-04-03T11:47:57.566Z,17.32
2023-04-03T11:53:04.924Z,17.65
2023-04-03T11:58:16.325Z,17.66
2023-04-03T12:03:34.259Z,17.19
2023-04-03T12:08:47.383Z,17.72
2023-04-03T12:14:05.996Z,17.55
2023-04-03T12:19:24.211Z,17.97
2023-04-03T12:24:43.535Z,16.79
2023-04-03T12:29:56.065Z,16.94
2023-04-03T12:35:05.249Z,17.33
2023-04-03T12:40:14.605Z,17.30
2023-04-03T12:45:16.728Z,18.01
2023-04-03T12:50:44.669Z,17.27
2023-04-03T12:55:56.326Z,17.04
2023-04-03T13:01:07.982Z,17.22
2023-04-03T13:06:13.554Z,17.08
2023-04-03T13:11:20.928Z,16.79
2023-04-03T13:16:25.320Z,17.15
2023-04-03T13:21:34.718Z,17.52
2023-04-03T13:26:55.385Z,17.34
2023-04-03T13:31:58.089Z,17.29
2023-04-03T13:36:58.409Z,17.53
2023-04-03T13:42:03.925Z,17.01
2023-04-03T13:47:17.448Z,17.07
2023-04-03T13:52:26.072Z,16.96
2023-04-03T13:57:25.085Z,16.60
2023-04-03T14:02:34.876Z,16.58
2023-04-03T14:07:35.295Z,16.15
2023-04-03T14:12:37.426Z,16.85
2023-04-03T14:17:36.208Z,16.44
2023-04-03T14:22:35.940Z,15.81
2023-04-03T14:27:46.028Z,15.69
2023-04-03T14:32:45.017Z,15.68
2023-04-03T14:37:43.457Z,16.01
2023-04-03T14:42:44.571Z,15.90
2023-04-03T14:47:52.959Z,15.90
2023-04-03T14:52:55.738Z,16.19
2023-04-03T14:57:54.387Z,16.37
2023-04-03T15:02:52.846Z,16.15
2023-04-03T15:07:58.267Z,15.92
2023-04-03T15:12:56.839Z,15.42
2023-04-03T15:17:59.109Z,15.19
2023-04-03T15:22:59.143Z,15.18
2023-04-03T15:27:59.632Z,15.53
2023-04-03T15:32:58.974Z,15.52
2023-04-03T15:37:59.653Z,15.35
2023-04-03T15:43:00.585Z,15.13
2023-04-03T15:47:59.185Z,14.92
2023-04-03T15:52:59.045Z,14.96
2023-04-03T15:57:58.130Z,14.86
2023-04-03T16:02:59.731Z,14.80
2023-04-03T16:07:59.018Z,14.94
2023-04-03T16:12:57.057Z,14.71
2023-04-03T16:17:55.287Z,14.47
2023-04-03T16:22:54.075Z,14.70
2023-04-03T16:27:52.775Z,14.67
2023-04-03T16:32:50.642Z,14.99
2023-04-03T16:37:50.370Z,14.92
2023-04-03T16:42:49.923Z,15.11
2023-04-03T16:47:49.984Z,14.89
2023-04-03T16:52:48.766Z,14.86
2023-04-03T16:57:47.265Z,14.87
2023-04-03T17:02:46.032Z,14.66
2023-04-03T17:07:45.344Z,14.16
2023-04-03T17:12:45.296Z,14.36
2023-04-03T17:17:46.107Z,14.11
2023-04-03T17:22:45.560Z,14.24
2023-04-03T17:27:44.163Z,13.94
2023-04-03T17:32:44.710Z,13.62
2023-04-03T17:37:44.028Z,13.81
2023-04-03T17:42:42.548Z,13.48
2023-04-03T17:47:45.927Z,13.47
2023-04-03T17:52:47.948Z,13.29
2023-04-03T17:57:47.094Z,13.24
2023-04-03T18:02:52.307Z,13.18
2023-04-03T18:07:53.838Z,13.02
2023-04-03T18:12:53.453Z,12.80
2023-04-03T18:17:57.060Z,13.18
2023-04-03T18:22:55.034Z,13.24
2023-04-03T18:27:53.580Z,13.11
2023-04-03T18:32:52.449Z,12.84
2023-04-03T18:37:54.221Z,12.83
2023-04-03T18:42:52.125Z,12.61
2023-04-03T18:47:50.532Z,12.76
2023-04-03T18:53:04.728Z,12.90
2023-04-03T18:58:14.609Z,12.78
2023-04-03T19:03:16.496Z,12.88
2023-04-03T19:08:19.385Z,12.69
2023-04-03T19:13:31.049Z,12.44
2023-04-03T19:18:31.558Z,12.22
2023-04-03T19:23:32.495Z,12.46
2023-04-03T19:28:30.929Z,12.18
2023-04-03T19:33:59.663Z,11.93
2023-04-03T19:39:04.136Z,12.04
2023-04-03T19:44:02.410Z,11.49
2023-04-03T19:49:00.962Z,11.76
2023-04-03T19:54:03.010Z,11.69
2023-04-03T19:59:04.113Z,11.73
2023-04-03T20:04:03.547Z,11.78
2023-04-03T20:09:03.929Z,12.00
2023-04-03T20:14:07.373Z,11.80
2023-04-03T20:19:07.360Z,11.57
2023-04-03T20:24:09.300Z,11.59
2023-04-03T20:29:09.977Z,11.20
2023-04-03T20:34:11.125Z,10.92
2023-04-03T20:39:08.876Z,10.93
2023-04-03T20:44:07.634Z,10.81
2023-04-03T20:49:06.765Z,11.39
2023-04-03T20:54:07.364Z,11.13
2023-04-03T20:59:05.923Z,11.21
2023-04-03T21:04:10.815Z,11.25
2023-04-03T21:09:47.354Z,11.57
2023-04-03T21:15:23.512Z,11.57
2023-04-03T21:20:22.067Z,11.18
2023-04-03T21:25:24.076Z,11.18
2023-04-03T21:30:28.051Z,11.14
2023-04-03T21:35:27.989Z,11.06
2023-04-03T21:40:27.032Z,11.01
2023-04-03T21:45:28.986Z,10.85
2023-04-03T21:50:28.821Z,10.86
2023-04-03T21:55:28.893Z,11.12
2023-04-03T22:00:32.903Z,9.99
2023-04-03T22:05:33.624Z,9.68
2023-04-03T22:10:33.903Z,9.21
2023-04-03T22:15:33.857Z,9.09
2023-04-03T22:20:33.803Z,9.40
2023-04-03T22:25:34.230Z,9.01
2023-04-03T22:30:32.259Z,9.06
2023-04-03T22:35:31.815Z,8.78
2023-04-03T22:40:29.809Z,8.60
2023-04-03T22:45:31.622Z,8.56
2023-04-03T22:50:31.080Z,8.45
2023-04-03T22:55:34.864Z,8.12
2023-04-03T23:00:36.598Z,8.38
2023-04-03T23:05:38.175Z,7.97
2023-04-03T23:10:37.350Z,8.04
2023-04-03T23:15:35.900Z,8.17
2023-04-03T23:20:34.328Z,8.14
2023-04-03T23:25:33.845Z,8.01
2023-04-03T23:30:32.742Z,8.52
2023-04-03T23:35:30.694Z,7.95
2023-04-03T23:40:29.430Z,8.15
2023-04-03T23:45:27.203Z,7.91
2023-04-03T23:50:26.577Z,7.79
2023-04-03T23:55:26.546Z,8.03
